Impacts TAF Board INFO
FOR SITUATIONAL AWARENESS. NOT TO BE USED FOR FLIGHT PLANNING PURPOSES.
IDs:

KLAX - Los Angeles Intl, CA, US

Issued at 1741 UTC 25 Feb 2018
Updated at 1741 UTC 25 Feb 2018
Potential Impact None Slight Moderate High
Time1653Z 25/18Z 25/19Z 25/20Z 25/21Z 25/22Z 25/23Z 26/00Z 26/01Z 26/02Z 26/03Z 26/04Z 26/05Z 26/06Z>>
Type OBS PRVL PRVL PRVL PRVL PRVL PRVL PRVL PRVL PRVL PRVL PRVL PRVL PRVL
VIS 10 >6 >6 >6 >6 >6 >6 >6 >6 >6 >6 >6 >6 >6
CIG -- -- -- -- -- -- -- -- -- -- -- -- -- --
Cover FEW FEW FEW FEW SKC SKC SKC SKC SKC SKC SKC SKC SKC SKC
FltCat VFR VFR VFR VFR VFR VFR VFR VFR VFR VFR VFR VFR VFR VFR
WX -- -- -- -- -- -- -- -- -- -- -- -- -- --
WDir VRB VRB VRB VRB 270 270 270 270 270 270 270 VRB VRB VRB
WSpd 0 0 0 0 12 12 12 12 12 12 12 3 3 3
WGst -- -- -- -- -- -- -- -- -- -- -- -- -- --

Raw TAF
KLAX 251741Z 2518/2624 00000KT P6SM FEW021 FEW300
  FM252100 27012KT P6SM SKC
  FM260400 VRB03KT P6SM SKC
  FM261100 08005KT P6SM SKC
  FM262000 26012KT P6SM BKN080


Raw METAR
KLAX 251653Z 00000KT 10SM FEW021 FEW300 13/04 A3024 RMK AO2 SLP238 T01330044
KLAX 251553Z 03004KT 10SM FEW021 FEW300 12/01 A3023 RMK AO2 SLP235 T01170011
KLAX 251453Z 00000KT 10SM FEW021 08/00 A3022 RMK AO2 SLP231 T00830000 53015

METAR Board
Radar Display
Forecast Discussion

FOR SITUATIONAL AWARENESS. NOT TO BE USED FOR FLIGHT PLANNING PURPOSES.